Time,TemperatureF,DewpointF,PressureIn,WindDirection,WindDirectionDegrees,WindSpeedMPH,WindSpeedGustMPH,Humidity,HourlyPrecipIn,Conditions,Clouds,dailyrainin,SoftwareType,DateUTC
2013-03-28 00:05:00,35.8,25.6,30.07,NW,315,4.2,-999.0,66,-99.99,,,0.00,Acu-Link.com,2013-03-28 04:05:00,
2013-03-28 00:20:00,35.2,25.4,30.06,NNE,22,2.7,-999.0,67,-99.99,,,0.00,Acu-Link.com,2013-03-28 04:20:00,
2013-03-28 00:35:00,35.1,24.9,30.06,West,270,3.2,-999.0,66,-99.99,,,0.00,Acu-Link.com,2013-03-28 04:35:00,
2013-03-28 00:51:00,34.9,24.7,30.07,West,270,3.7,-999.0,66,-99.99,,,0.00,Acu-Link.com,2013-03-28 04:51:00,
2013-03-28 01:06:00,34.3,24.5,30.07,WSW,247,2.7,-999.0,67,-99.99,,,0.00,Acu-Link.com,2013-03-28 05:06:00,
2013-03-28 01:21:00,34.0,24.6,30.07,NW,315,3.7,-999.0,68,-99.99,,,0.00,Acu-Link.com,2013-03-28 05:21:00,
2013-03-28 01:36:00,33.6,24.2,30.07,NW,315,2.2,-999.0,68,-99.99,,,0.00,Acu-Link.com,2013-03-28 05:36:00,
2013-03-28 01:52:00,33.6,24.5,30.07,North,0,4.2,-999.0,69,-99.99,,,0.00,Acu-Link.com,2013-03-28 05:52:00,
2013-03-28 02:07:00,33.8,24.4,30.07,NW,315,5.8,-999.0,68,-99.99,,,0.00,Acu-Link.com,2013-03-28 06:07:00,
2013-03-28 02:22:00,33.8,24.4,30.07,West,270,2.2,-999.0,68,-99.99,,,0.00,Acu-Link.com,2013-03-28 06:22:00,
2013-03-28 02:37:00,33.6,24.2,30.07,West,270,5.8,-999.0,68,-99.99,,,0.00,Acu-Link.com,2013-03-28 06:37:00,
2013-03-28 02:52:00,33.6,24.2,30.07,North,0,1.7,-999.0,68,-99.99,,,0.00,Acu-Link.com,2013-03-28 06:52:00,
2013-03-28 03:08:00,33.3,24.2,30.07,NNW,337,2.7,-999.0,69,-99.99,,,0.00,Acu-Link.com,2013-03-28 07:08:00,
2013-03-28 03:23:00,32.2,23.5,30.07,WSW,247,4.2,-999.0,70,-99.99,,,0.00,Acu-Link.com,2013-03-28 07:23:00,
2013-03-28 03:38:00,31.8,23.8,30.07,North,0,1.1,-999.0,72,-99.99,,,0.00,Acu-Link.com,2013-03-28 07:38:00,
2013-03-28 03:53:00,31.3,23.7,30.07,East,90,1.7,-999.0,73,-99.99,,,0.00,Acu-Link.com,2013-03-28 07:53:00,
2013-03-28 04:09:00,30.9,23.6,30.07,WSW,247,4.2,-999.0,74,-99.99,,,0.00,Acu-Link.com,2013-03-28 08:09:00,
2013-03-28 04:24:00,30.7,23.7,30.07,SW,225,2.2,-999.0,75,-99.99,,,0.00,Acu-Link.com,2013-03-28 08:24:00,
2013-03-28 04:39:00,30.2,23.9,30.07,WNW,292,1.7,-999.0,77,-99.99,,,0.00,Acu-Link.com,2013-03-28 08:39:00,
2013-03-28 04:54:00,30.0,24.0,30.06,West,270,3.7,-999.0,78,-99.99,,,0.00,Acu-Link.com,2013-03-28 08:54:00,
2013-03-28 05:09:00,29.8,24.1,30.06,West,270,3.2,-999.0,79,-99.99,,,0.00,Acu-Link.com,2013-03-28 09:09:00,
2013-03-28 05:24:00,29.8,24.1,30.06,SW,225,2.7,-999.0,79,-99.99,,,0.00,Acu-Link.com,2013-03-28 09:24:00,
2013-03-28 05:40:00,29.7,24.3,30.06,WNW,292,2.7,-999.0,80,-99.99,,,0.00,Acu-Link.com,2013-03-28 09:40:00,
2013-03-28 05:55:00,29.7,24.3,30.07,WNW,292,2.2,-999.0,80,-99.99,,,0.00,Acu-Link.com,2013-03-28 09:55:00,
2013-03-28 06:10:00,29.7,24.6,30.07,NW,315,1.7,-999.0,81,-99.99,,,0.00,Acu-Link.com,2013-03-28 10:10:00,
2013-03-28 06:25:00,29.1,24.3,30.08,West,270,2.7,-999.0,82,-99.99,,,0.00,Acu-Link.com,2013-03-28 10:25:00,
2013-03-28 06:40:00,28.6,24.4,30.08,West,270,2.2,-999.0,84,-99.99,,,0.00,Acu-Link.com,2013-03-28 10:40:00,
2013-03-28 07:11:00,28.2,24.3,30.09,WNW,292,1.1,-999.0,85,-99.99,,,0.00,Acu-Link.com,2013-03-28 11:11:00,
2013-03-28 07:26:00,28.4,24.5,30.09,NNW,337,2.7,-999.0,85,-99.99,,,0.00,Acu-Link.com,2013-03-28 11:26:00,
2013-03-28 07:57:00,29.1,24.9,30.10,NNW,337,2.7,-999.0,84,-99.99,,,0.00,Acu-Link.com,2013-03-28 11:57:00,
2013-03-28 08:12:00,30.2,25.4,30.10,NW,315,1.7,-999.0,82,-99.99,,,0.00,Acu-Link.com,2013-03-28 12:12:00,
2013-03-28 08:27:00,30.9,25.5,30.11,NW,315,1.7,-999.0,80,-99.99,,,0.00,Acu-Link.com,2013-03-28 12:27:00,
2013-03-28 08:43:00,32.2,25.8,30.11,NW,315,2.2,-999.0,77,-99.99,,,0.00,Acu-Link.com,2013-03-28 12:43:00,
2013-03-28 08:58:00,32.5,25.5,30.11,WNW,292,2.7,-999.0,75,-99.99,,,0.00,Acu-Link.com,2013-03-28 12:58:00,
2013-03-28 09:13:00,33.1,25.7,30.11,West,270,3.2,-999.0,74,-99.99,,,0.00,Acu-Link.com,2013-03-28 13:13:00,
2013-03-28 09:28:00,34.0,25.9,30.12,West,270,1.7,-999.0,72,-99.99,,,0.00,Acu-Link.com,2013-03-28 13:28:00,
2013-03-28 09:43:00,34.5,26.1,30.12,NNE,22,3.2,-999.0,71,-99.99,,,0.00,Acu-Link.com,2013-03-28 13:43:00,
2013-03-28 09:58:00,35.1,26.0,30.12,NNE,22,3.2,-999.0,69,-99.99,,,0.00,Acu-Link.com,2013-03-28 13:58:00,
2013-03-28 10:14:00,35.8,26.3,30.13,NNW,337,2.7,-999.0,68,-99.99,,,0.00,Acu-Link.com,2013-03-28 14:14:00,
2013-03-28 10:29:00,35.2,26.4,30.14,West,270,5.3,-999.0,70,-99.99,,,0.00,Acu-Link.com,2013-03-28 14:29:00,
2013-03-28 10:44:00,35.6,26.5,30.13,West,270,4.2,-999.0,69,-99.99,,,0.00,Acu-Link.com,2013-03-28 14:44:00,
2013-03-28 10:59:00,37.9,27.6,30.13,NNW,337,2.2,-999.0,66,-99.99,,,0.00,Acu-Link.com,2013-03-28 14:59:00,
2013-03-28 11:14:00,37.9,27.6,30.13,WNW,292,5.3,-999.0,66,-99.99,,,0.00,Acu-Link.com,2013-03-28 15:14:00,
2013-03-28 11:29:00,41.0,28.6,30.13,North,0,6.3,-999.0,61,-99.99,,,0.00,Acu-Link.com,2013-03-28 15:29:00,
2013-03-28 11:45:00,42.6,28.9,30.13,WNW,292,4.2,-999.0,58,-99.99,,,0.00,Acu-Link.com,2013-03-28 15:45:00,
2013-03-28 12:00:00,44.4,27.9,30.13,West,270,4.2,-999.0,52,-99.99,,,0.00,Acu-Link.com,2013-03-28 16:00:00,
2013-03-28 12:15:00,46.0,28.4,30.13,West,270,5.3,-999.0,50,-99.99,,,0.00,Acu-Link.com,2013-03-28 16:15:00,
2013-03-28 12:31:00,46.6,27.5,30.12,NNE,22,2.2,-999.0,47,-99.99,,,0.00,Acu-Link.com,2013-03-28 16:31:00,
2013-03-28 12:46:00,46.2,25.5,30.12,NE,45,6.3,-999.0,44,-99.99,,,0.00,Acu-Link.com,2013-03-28 16:46:00,
2013-03-28 13:01:00,47.3,27.0,30.12,North,0,5.3,-999.0,45,-99.99,,,0.00,Acu-Link.com,2013-03-28 17:01:00,
2013-03-28 13:16:00,48.0,27.1,30.11,West,270,4.7,-999.0,44,-99.99,,,0.00,Acu-Link.com,2013-03-28 17:16:00,
2013-03-28 13:32:00,50.4,28.8,30.11,WNW,292,6.8,-999.0,43,-99.99,,,0.00,Acu-Link.com,2013-03-28 17:32:00,
2013-03-28 13:47:00,50.0,26.6,30.11,West,270,4.2,-999.0,40,-99.99,,,0.00,Acu-Link.com,2013-03-28 17:47:00,
2013-03-28 14:02:00,49.3,24.8,30.11,NNE,22,5.3,-999.0,38,-99.99,,,0.00,Acu-Link.com,2013-03-28 18:02:00,
2013-03-28 14:32:00,49.8,25.9,30.11,NE,45,7.8,-999.0,39,-99.99,,,0.00,Acu-Link.com,2013-03-28 18:32:00,
2013-03-28 14:47:00,49.6,26.3,30.11,North,0,4.2,-999.0,40,-99.99,,,0.00,Acu-Link.com,2013-03-28 18:47:00,
2013-03-28 15:02:00,50.0,27.2,30.10,NW,315,4.7,-999.0,41,-99.99,,,0.00,Acu-Link.com,2013-03-28 19:02:00,
2013-03-28 15:17:00,51.3,28.4,30.09,East,90,5.8,-999.0,41,-99.99,,,0.00,Acu-Link.com,2013-03-28 19:17:00,
2013-03-28 15:33:00,51.6,28.1,30.09,West,270,4.2,-999.0,40,-99.99,,,0.00,Acu-Link.com,2013-03-28 19:33:00,
2013-03-28 15:48:00,51.1,27.0,30.09,West,270,4.2,-999.0,39,-99.99,,,0.00,Acu-Link.com,2013-03-28 19:48:00,
2013-03-28 16:03:00,52.0,27.8,30.09,West,270,3.7,-999.0,39,-99.99,,,0.00,Acu-Link.com,2013-03-28 20:03:00,
2013-03-28 16:18:00,51.4,28.5,30.09,West,270,9.9,-999.0,41,-99.99,,,0.00,Acu-Link.com,2013-03-28 20:18:00,
2013-03-28 16:33:00,52.9,30.4,30.09,West,270,3.7,-999.0,42,-99.99,,,0.00,Acu-Link.com,2013-03-28 20:33:00,
2013-03-28 16:49:00,54.1,29.1,30.08,West,270,3.2,-999.0,38,-99.99,,,0.00,Acu-Link.com,2013-03-28 20:49:00,
2013-03-28 17:04:00,52.7,29.7,30.08,WNW,292,4.2,-999.0,41,-99.99,,,0.00,Acu-Link.com,2013-03-28 21:04:00,
2013-03-28 17:19:00,52.2,29.2,30.08,West,270,2.7,-999.0,41,-99.99,,,0.00,Acu-Link.com,2013-03-28 21:19:00,
2013-03-28 17:34:00,50.2,29.7,30.09,WNW,292,2.7,-999.0,45,-99.99,,,0.00,Acu-Link.com,2013-03-28 21:34:00,
2013-03-28 17:49:00,48.7,28.9,30.09,North,0,2.7,-999.0,46,-99.99,,,0.00,Acu-Link.com,2013-03-28 21:49:00,
2013-03-28 18:05:00,48.2,28.4,30.09,WNW,292,2.2,-999.0,46,-99.99,,,0.00,Acu-Link.com,2013-03-28 22:05:00,
2013-03-28 18:20:00,51.1,28.8,30.09,WNW,292,6.8,-999.0,42,-99.99,,,0.00,Acu-Link.com,2013-03-28 22:20:00,
2013-03-28 18:35:00,52.0,28.4,30.09,West,270,4.2,-999.0,40,-99.99,,,0.00,Acu-Link.com,2013-03-28 22:35:00,
2013-03-28 18:50:00,50.0,27.2,30.09,West,270,4.7,-999.0,41,-99.99,,,0.00,Acu-Link.com,2013-03-28 22:50:00,
2013-03-28 19:05:00,48.6,27.7,30.09,NNW,337,3.7,-999.0,44,-99.99,,,0.00,Acu-Link.com,2013-03-28 23:05:00,
2013-03-28 19:20:00,47.5,27.2,30.10,West,270,2.7,-999.0,45,-99.99,,,0.00,Acu-Link.com,2013-03-28 23:20:00,
2013-03-28 19:35:00,46.2,26.6,30.10,NNW,337,2.2,-999.0,46,-99.99,,,0.00,Acu-Link.com,2013-03-28 23:35:00,
2013-03-28 19:51:00,44.6,26.6,30.11,NNW,337,3.7,-999.0,49,-99.99,,,0.00,Acu-Link.com,2013-03-28 23:51:00,
2013-03-28 20:37:00,39.0,24.7,30.11,WSW,247,0.0,-999.0,56,-99.99,,,0.00,Acu-Link.com,2013-03-29 00:37:00,
2013-03-28 20:52:00,37.2,24.2,30.11,WSW,247,0.0,-999.0,59,-99.99,,,0.00,Acu-Link.com,2013-03-29 00:52:00,
2013-03-28 21:07:00,35.6,24.3,30.11,WSW,247,0.0,-999.0,63,-99.99,,,0.00,Acu-Link.com,2013-03-29 01:07:00,
2013-03-28 21:22:00,34.2,23.7,30.11,WSW,247,0.0,-999.0,65,-99.99,,,0.00,Acu-Link.com,2013-03-29 01:22:00,
2013-03-28 21:38:00,32.9,23.5,30.11,WSW,247,0.0,-999.0,68,-99.99,,,0.00,Acu-Link.com,2013-03-29 01:38:00,
2013-03-28 21:53:00,31.6,23.6,30.11,WSW,247,1.1,-999.0,72,-99.99,,,0.00,Acu-Link.com,2013-03-29 01:53:00,
2013-03-28 22:08:00,31.3,24.0,30.12,WSW,247,0.0,-999.0,74,-99.99,,,0.00,Acu-Link.com,2013-03-29 02:08:00,
2013-03-28 22:23:00,30.6,24.9,30.12,West,270,2.2,-999.0,79,-99.99,,,0.00,Acu-Link.com,2013-03-29 02:23:00,
2013-03-28 22:38:00,30.2,24.8,30.13,WSW,247,1.1,-999.0,80,-99.99,,,0.00,Acu-Link.com,2013-03-29 02:38:00,
2013-03-28 22:54:00,29.5,24.7,30.13,WSW,247,1.7,-999.0,82,-99.99,,,0.00,Acu-Link.com,2013-03-29 02:54:00,
2013-03-28 23:09:00,29.1,24.9,30.13,West,270,0.0,-999.0,84,-99.99,,,0.00,Acu-Link.com,2013-03-29 03:09:00,
2013-03-28 23:24:00,28.8,24.3,30.13,West,270,1.7,-999.0,83,-99.99,,,0.00,Acu-Link.com,2013-03-29 03:24:00,
2013-03-28 23:39:00,29.7,24.9,30.13,West,270,1.1,-999.0,82,-99.99,,,0.00,Acu-Link.com,2013-03-29 03:39:00,
2013-03-28 23:55:00,32.5,24.8,30.13,West,270,2.7,-999.0,73,-99.99,,,0.00,Acu-Link.com,2013-03-29 03:55:00,